Taylors, SC

3:33 PM EST on December 06, 2016 (GMT -0500)
Edward's Forest | | Change Station

Elev 1000 ft 34.93 °N, 82.33 °W | Updated 17 seconds ago

Overcast
Overcast
46.5 °F
Feels Like 46 °F
N
0.0
Wind Variable Wind from ESE
Gusts 3.0 mph

Today
High -- | Low -- °F
--% Chance of Precip.
Yesterday
High -- | Low -- °F
Precip. -- in
Pressure 29.74 in
Visibility 10.0 miles
Clouds Mostly Cloudy 900 ft
Overcast 2300 ft
Windchill 46 °F
Dew Point 45 °F
Humidity 94%
Rainfall 0.51 in
Snow Depth Not available.
7:23 AM 5:17 PM
Waxing Crescent, 45% visible
METAR KGSP 061953Z 04006KT 10SM BKN009 OVC023 08/06 A2974 RMK AO2 RAE1859 SLP069 P0000 T00780056
Pressure 29.74 in
Visibility 10.0 miles
Clouds Mostly Cloudy 900 ft
Overcast 2300 ft
Windchill 46 °F
Dew Point 45 °F
Humidity 94%
Rainfall 0.51 in
Snow Depth Not available.
7:23 AM 5:17 PM
Waxing Crescent, 45% visible
METAR KGSP 061953Z 04006KT 10SM BKN009 OVC023 08/06 A2974 RMK AO2 RAE1859 SLP069 P0000 T00780056

10-Day Weather Forecast

Almanac

Astronomy

Dec. 06, 2016 Rise Set
Actual Time
Civil Twilight
Nautical Twilight
Astronomical Twilight
Moon
Length of Visible Light
Length of Day
Tomorrow will be .
, % of the Moon is Illuminated

Today's Extremes

State Highs State Lows

Community

WunderPhotos

Upload Photos

1,956,024 photos uploaded!

WunderBlog® & News

Nearby

Air Quality

  Air Quality AQ Index Pollutant
Not available.

Snow Depth

Station Depth Elevation

Earthquake Activity

City Distance Mag. Time & Date
Minimum magnitude displayed is 2.5.

Coastal Water Temperatures

Place Temperature

Stations

Nearby Weather Stations

Station Location Temp. Windchill Dew Point Humidity Wind Precip. Elev Updated Type
                   

Watches & Warnings

There are currently no watches in effect.